createdAt,value
2022-12-04T00:01:07.532Z,96582.38
2022-12-04T00:03:34.476Z,96586.59
2022-12-04T00:06:11.653Z,96579.00
2022-12-04T00:08:39.123Z,96578.22
2022-12-04T00:11:07.514Z,96565.38
2022-12-04T00:13:34.436Z,96562.56
2022-12-04T00:16:01.334Z,96568.16
2022-12-04T00:18:28.050Z,96551.53
2022-12-04T00:20:54.697Z,96558.94
2022-12-04T00:23:21.448Z,96554.53
2022-12-04T00:25:48.922Z,96544.72
2022-12-04T00:28:17.326Z,96554.94
2022-12-04T00:30:45.107Z,96559.34
2022-12-04T00:33:13.333Z,96554.53
2022-12-04T00:35:40.239Z,96560.97
2022-12-04T00:38:06.806Z,96564.16
2022-12-04T00:40:38.058Z,96580.19
2022-12-04T00:43:04.753Z,96583.41
2022-12-04T00:45:34.451Z,96574.56
2022-12-04T00:48:01.109Z,96569.38
2022-12-04T00:50:27.836Z,96570.16
2022-12-04T00:52:54.833Z,96565.38
2022-12-04T00:55:21.415Z,96566.56
2022-12-04T00:57:48.092Z,96561.34
2022-12-04T01:00:14.907Z,96554.94
2022-12-04T01:02:41.552Z,96573.00
2022-12-04T01:05:08.635Z,96563.75
2022-12-04T01:07:39.894Z,96553.72
2022-12-04T01:10:08.407Z,96569.38
2022-12-04T01:12:35.148Z,96561.75
2022-12-04T01:15:04.125Z,96564.16
2022-12-04T01:17:30.717Z,96560.56
2022-12-04T01:19:57.596Z,96550.13
2022-12-04T01:22:24.510Z,96554.94
2022-12-04T01:24:51.147Z,96564.97
2022-12-04T01:27:17.728Z,96556.16
2022-12-04T01:29:44.315Z,96554.16
2022-12-04T01:32:11.052Z,96549.31
2022-12-04T01:34:40.739Z,96554.94
2022-12-04T01:37:11.340Z,96544.09
2022-12-04T01:39:38.259Z,96549.13
2022-12-04T01:42:12.110Z,96557.38
2022-12-04T01:44:43.653Z,96556.75
2022-12-04T01:47:11.411Z,96552.53
2022-12-04T01:49:50.952Z,96571.59
2022-12-04T01:52:31.433Z,96565.38
2022-12-04T01:55:01.273Z,96565.38
2022-12-04T01:57:32.502Z,96560.34
2022-12-04T02:00:02.732Z,96557.75
2022-12-04T02:02:36.991Z,96560.53
2022-12-04T02:05:05.952Z,96556.94
2022-12-04T02:07:33.515Z,96553.34
2022-12-04T02:10:06.319Z,96548.13
2022-12-04T02:12:43.712Z,96541.06
2022-12-04T02:15:16.211Z,96539.28
2022-12-04T02:18:04.394Z,96538.88
2022-12-04T02:20:49.741Z,96534.06
2022-12-04T02:23:25.983Z,96537.47
2022-12-04T02:25:59.314Z,96541.31
2022-12-04T02:28:41.863Z,96536.09
2022-12-04T02:31:13.578Z,96538.09
2022-12-04T02:33:48.404Z,96530.47
2022-12-04T02:36:27.696Z,96525.66
2022-12-04T02:39:36.166Z,96533.47
2022-12-04T02:42:14.524Z,96531.69
2022-12-04T02:44:59.720Z,96527.84
2022-12-04T02:47:26.950Z,96521.63
2022-12-04T02:49:59.149Z,96514.00
2022-12-04T02:52:35.152Z,96514.81
2022-12-04T02:55:14.956Z,96516.03
2022-12-04T02:57:44.511Z,96524.44
2022-12-04T03:00:11.783Z,96511.03
2022-12-04T03:02:48.372Z,96515.44
2022-12-04T03:05:20.530Z,96512.81
2022-12-04T03:07:52.575Z,96511.59
2022-12-04T03:10:25.980Z,96508.00
2022-12-04T03:12:58.882Z,96518.59
2022-12-04T03:15:52.501Z,96519.84
2022-12-04T03:18:23.771Z,96526.84
2022-12-04T03:20:55.193Z,96511.22
2022-12-04T03:23:28.592Z,96504.22
2022-12-04T03:26:24.673Z,96496.00
2022-12-04T03:29:00.698Z,96501.78
2022-12-04T03:31:46.997Z,96502.22
2022-12-04T03:34:20.307Z,96511.22
2022-12-04T03:36:54.563Z,96502.78
2022-12-04T03:39:27.827Z,96506.00
2022-12-04T03:41:58.007Z,96501.16
2022-12-04T03:44:48.376Z,96500.00
2022-12-04T03:47:33.411Z,96508.63
2022-12-04T03:49:59.917Z,96501.41
2022-12-04T03:52:52.422Z,96496.41
2022-12-04T03:55:45.267Z,96503.59
2022-12-04T03:58:19.837Z,96512.84
2022-12-04T04:00:49.487Z,96503.22
2022-12-04T04:03:21.185Z,96517.44
2022-12-04T04:05:52.352Z,96526.88
2022-12-04T04:08:26.960Z,96535.69
2022-12-04T04:10:59.193Z,96542.91
2022-12-04T04:13:51.350Z,96536.09
2022-12-04T04:16:39.947Z,96545.28
2022-12-04T04:19:27.599Z,96540.06
2022-12-04T04:22:14.339Z,96542.91
2022-12-04T04:24:50.271Z,96533.47
2022-12-04T04:27:17.023Z,96530.28
2022-12-04T04:29:50.617Z,96518.44
2022-12-04T04:32:27.903Z,96522.88
2022-12-04T04:35:19.309Z,96519.84
2022-12-04T04:38:12.421Z,96526.06
2022-12-04T04:41:05.479Z,96512.03
2022-12-04T04:43:44.277Z,96510.41
2022-12-04T04:46:21.158Z,96518.84
2022-12-04T04:48:51.554Z,96510.41
2022-12-04T04:51:19.486Z,96520.47
2022-12-04T04:53:50.833Z,96510.03
2022-12-04T04:56:18.717Z,96525.25
2022-12-04T04:58:45.355Z,96525.25
2022-12-04T05:01:15.128Z,96527.66
2022-12-04T05:03:42.227Z,96526.06
2022-12-04T05:06:08.964Z,96524.44
2022-12-04T05:08:36.533Z,96523.44
2022-12-04T05:11:04.076Z,96529.66
2022-12-04T05:13:31.703Z,96522.88
2022-12-04T05:16:04.325Z,96528.66
2022-12-04T05:18:32.120Z,96531.47
2022-12-04T05:20:58.791Z,96524.06
2022-12-04T05:23:25.927Z,96525.25
2022-12-04T05:26:02.304Z,96534.47
2022-12-04T05:28:29.120Z,96528.09
2022-12-04T05:31:01.690Z,96521.66
2022-12-04T05:33:32.160Z,96520.84
2022-12-04T05:36:02.353Z,96515.63
2022-12-04T05:38:29.205Z,96503.59
2022-12-04T05:40:58.336Z,96510.03
2022-12-04T05:43:25.038Z,96506.00
2022-12-04T05:45:51.581Z,96509.41
2022-12-04T05:48:20.126Z,96502.41
2022-12-04T05:50:46.693Z,96513.63
2022-12-04T05:53:13.260Z,96516.84
2022-12-04T05:55:39.834Z,96523.25
2022-12-04T05:58:06.471Z,96520.03
2022-12-04T06:00:33.017Z,96518.44
2022-12-04T06:02:59.633Z,96525.25
2022-12-04T06:05:26.253Z,96518.84
2022-12-04T06:07:52.926Z,96518.84
2022-12-04T06:10:19.523Z,96518.03
2022-12-04T06:12:46.130Z,96517.25
2022-12-04T06:15:15.705Z,96516.44
2022-12-04T06:17:42.222Z,96518.44
2022-12-04T06:20:11.805Z,96519.66
2022-12-04T06:22:38.787Z,96525.25
2022-12-04T06:25:05.735Z,96506.44
2022-12-04T06:27:32.277Z,96508.59
2022-12-04T06:29:59.181Z,96511.59
2022-12-04T06:32:26.090Z,96519.22
2022-12-04T06:34:53.864Z,96516.22
2022-12-04T06:37:25.274Z,96520.00
2022-12-04T06:39:51.830Z,96528.81
2022-12-04T06:42:18.509Z,96526.22
2022-12-04T06:44:45.237Z,96527.66
2022-12-04T06:47:11.788Z,96525.66
2022-12-04T06:49:38.507Z,96529.47
2022-12-04T06:52:05.099Z,96520.03
2022-12-04T06:54:31.646Z,96523.25
2022-12-04T06:56:58.125Z,96524.06
2022-12-04T06:59:25.558Z,96524.06
2022-12-04T07:01:52.154Z,96530.88
2022-12-04T07:04:18.739Z,96520.03
2022-12-04T07:06:45.316Z,96522.81
2022-12-04T07:09:15.885Z,96524.44
2022-12-04T07:11:43.911Z,96528.03
2022-12-04T07:14:11.371Z,96527.03
2022-12-04T07:16:41.417Z,96531.66
2022-12-04T07:19:13.834Z,96526.44
2022-12-04T07:21:41.509Z,96533.06
2022-12-04T07:24:08.346Z,96529.47
2022-12-04T07:26:34.902Z,96532.88
2022-12-04T07:29:01.506Z,96533.25
2022-12-04T07:31:29.335Z,96540.06
2022-12-04T07:33:57.899Z,96532.84
2022-12-04T07:36:25.653Z,96537.25
2022-12-04T07:38:52.510Z,96526.81
2022-12-04T07:41:19.624Z,96523.25
2022-12-04T07:43:46.192Z,96521.63
2022-12-04T07:46:18.878Z,96523.00
2022-12-04T07:48:45.480Z,96524.03
2022-12-04T07:51:17.679Z,96525.59
2022-12-04T07:53:53.429Z,96526.00
2022-12-04T08:07:47.960Z,96538.00
2022-12-04T08:10:14.717Z,96544.44
2022-12-04T08:12:41.431Z,96548.84
2022-12-04T08:15:08.490Z,96548.81
2022-12-04T08:17:34.972Z,96554.41
2022-12-04T08:20:01.421Z,96552.81
2022-12-04T08:22:27.902Z,96553.63
2022-12-04T08:24:54.560Z,96556.59
2022-12-04T08:27:21.037Z,96553.56
2022-12-04T08:29:47.599Z,96558.00
2022-12-04T08:32:14.131Z,96564.22
2022-12-04T08:34:41.134Z,96556.78
2022-12-04T08:37:07.624Z,96563.22
2022-12-04T08:39:34.055Z,96562.78
2022-12-04T08:42:00.505Z,96560.78
2022-12-04T08:44:29.920Z,96570.78
2022-12-04T08:46:56.410Z,96562.13
2022-12-04T08:49:22.874Z,96573.56
2022-12-04T08:51:49.359Z,96569.38
2022-12-04T08:54:15.882Z,96569.59
2022-12-04T08:56:44.528Z,96571.56
2022-12-04T08:59:15.363Z,96579.03
2022-12-04T09:01:44.346Z,96573.19
2022-12-04T09:04:11.090Z,96580.00
2022-12-04T09:06:37.644Z,96569.13
2022-12-04T09:09:08.526Z,96568.47
2022-12-04T09:11:35.042Z,96572.28
2022-12-04T09:14:03.193Z,96570.66
2022-12-04T09:16:30.381Z,96578.09
2022-12-04T09:18:57.553Z,96579.06
2022-12-04T09:21:25.232Z,96568.78
2022-12-04T09:23:51.879Z,96562.59
2022-12-04T09:26:24.959Z,96561.59
2022-12-04T09:28:58.905Z,96557.75
2022-12-04T09:31:28.078Z,96552.50
2022-12-04T09:33:54.966Z,96546.31
2022-12-04T09:36:21.480Z,96542.44
2022-12-04T09:38:53.664Z,96534.38
2022-12-04T09:41:20.009Z,96537.56
2022-12-04T09:44:07.075Z,96535.09
2022-12-04T09:46:58.171Z,96528.19
2022-12-04T09:49:36.357Z,96522.97
2022-12-04T09:52:09.462Z,96518.09
2022-12-04T09:54:41.113Z,96510.75
2022-12-04T09:57:45.084Z,96499.22
2022-12-04T10:00:18.110Z,96498.50
2022-12-04T10:03:14.643Z,96500.56
2022-12-04T10:06:07.941Z,96489.66
2022-12-04T10:08:38.485Z,96491.19
2022-12-04T10:11:14.032Z,96484.28
2022-12-04T10:13:43.427Z,96486.53
2022-12-04T10:16:22.059Z,96489.72
2022-12-04T10:19:08.288Z,96492.13
2022-12-04T10:21:41.577Z,96491.38
2022-12-04T10:24:33.741Z,96495.44
2022-12-04T10:27:04.777Z,96491.06
2022-12-04T10:29:35.706Z,96494.28
2022-12-04T10:32:34.867Z,96491.75
2022-12-04T10:35:22.802Z,96492.56
2022-12-04T10:38:23.745Z,96493.84
2022-12-04T10:41:22.480Z,96485.78
2022-12-04T10:43:50.083Z,96498.16
2022-12-04T10:46:32.798Z,96490.22
2022-12-04T10:49:26.538Z,96514.75
2022-12-04T10:51:53.614Z,96513.56
2022-12-04T10:54:50.033Z,96501.22
2022-12-04T10:57:17.004Z,96516.88
2022-12-04T10:59:52.463Z,96496.41
2022-12-04T11:02:39.480Z,96486.81
2022-12-04T11:05:22.369Z,96484.03
2022-12-04T11:07:51.623Z,96500.16
2022-12-04T11:10:21.090Z,96482.81
2022-12-04T11:13:02.836Z,96482.25
2022-12-04T11:15:29.450Z,96489.94
2022-12-04T11:18:06.468Z,96497.19
2022-12-04T11:20:33.039Z,96504.06
2022-12-04T11:22:59.978Z,96506.50
2022-12-04T11:25:44.607Z,96499.69
2022-12-04T11:28:39.881Z,96499.69
2022-12-04T11:31:05.795Z,96491.84
2022-12-04T11:34:09.334Z,96499.44
2022-12-04T11:36:41.658Z,96507.28
2022-12-04T11:39:18.859Z,96514.09
2022-12-04T11:41:45.800Z,96492.78
2022-12-04T11:44:24.961Z,96488.78
2022-12-04T11:46:54.026Z,96480.28
2022-12-04T11:49:22.792Z,96473.38
2022-12-04T11:52:20.804Z,96478.94
2022-12-04T11:55:03.599Z,96464.44
2022-12-04T11:57:54.748Z,96462.56
2022-12-04T12:00:22.693Z,96461.56
2022-12-04T12:03:09.905Z,96471.56
2022-12-04T12:05:57.379Z,96459.50
2022-12-04T12:08:32.830Z,96462.34
2022-12-04T12:11:09.909Z,96459.09
2022-12-04T12:14:08.473Z,96454.59
2022-12-04T12:16:57.123Z,96449.13
2022-12-04T12:19:37.245Z,96449.16
2022-12-04T12:22:51.221Z,96456.69
2022-12-04T12:25:33.589Z,96450.13
2022-12-04T12:28:02.986Z,96455.75
2022-12-04T12:31:05.612Z,96457.78
2022-12-04T12:33:44.962Z,96454.66
2022-12-04T12:36:13.977Z,96451.00
2022-12-04T12:39:15.964Z,96453.56
2022-12-04T12:41:48.805Z,96446.88
2022-12-04T12:44:24.204Z,96450.91
2022-12-04T12:47:00.463Z,96451.91
2022-12-04T12:49:44.818Z,96449.28
2022-12-04T12:52:25.157Z,96446.25
2022-12-04T12:55:09.910Z,96430.63
2022-12-04T12:57:42.806Z,96435.84
2022-12-04T13:00:15.619Z,96431.38
2022-12-04T13:03:03.710Z,96420.81
2022-12-04T13:05:45.556Z,96437.25
2022-12-04T13:08:18.348Z,96441.13
2022-12-04T13:10:50.141Z,96451.84
2022-12-04T13:13:27.264Z,96465.19
2022-12-04T13:16:04.075Z,96479.84
2022-12-04T13:19:11.964Z,96474.03
2022-12-04T13:21:54.693Z,96476.22
2022-12-04T13:24:32.593Z,96474.69
2022-12-04T13:27:22.308Z,96469.47
2022-12-04T13:30:07.686Z,96457.78
2022-12-04T13:33:02.001Z,96464.38
2022-12-04T13:36:05.606Z,96459.91
2022-12-04T13:39:02.273Z,96455.69
2022-12-04T13:41:30.910Z,96461.34
2022-12-04T13:44:00.612Z,96460.09
2022-12-04T13:46:42.308Z,96456.94
2022-12-04T13:49:17.802Z,96451.31
2022-12-04T13:51:47.138Z,96452.31
2022-12-04T13:54:16.794Z,96446.25
2022-12-04T13:56:46.097Z,96449.00
2022-12-04T13:59:21.824Z,96449.00
2022-12-04T14:01:54.775Z,96457.28
2022-12-04T14:04:30.558Z,96454.53
2022-12-04T14:07:01.299Z,96459.31
